メインページ
METAR-TAF:

METAR-TAF

空港 :

Otis Air National Guard Base

ファルマス, マサチューセッツ州, アメリカ合衆国

緯度: 41-39N, 経度: 070-31W, 海抜: 40m

現時点の気象観測

当レポートは1時間31分前の04:55(UTC)に作成
西/南西の風 7kt
気温 16°C
湿度 100%
気圧 1023 hPa
視程: 3.2km
高度300ftの曇り

METAR: KFMH 270455Z 24007KT 2SM BR OVC003 16/16 A3022

時間: 02:26 (06:26 UTC)

予報

当レポートは51分前の05:35(UTC)に作成
予報は27日の 06時(UTC)から 28日の 06時(UTC)まで有効
南西の風 5kt
視程: 0.8km
高度200ftの曇り
27日の 0800時(UTC)から
南西の風 5kt
視程: 0.4km
高度300ftの曇り
27日の 1300時(UTC)から
南西の風 6kt
視程: 10km
高度1500ftの千切れ雲あり
27日の 1700時(UTC)から
南西の風 10kt、最大18ktの突風を伴う
視程: 10km
高度4000ftの雲は散在している
27日の 2200時(UTC)から
南西の風 12kt、最大20ktの突風を伴う
視程: 10km
高度800ftの千切れ雲あり
28日の 0400時(UTC)から
南西の風 8kt
視程: 3.2km
高度800ftの曇り

TAF: KFMH 270535Z 2706/2806 23005KT 1/2SM FG OVC002 FM270800 23005KT 1/4SM FG OVC003 FM271300 22006KT P6SM BKN015 FM271700 22010G18KT P6SM SCT040 FM272200 22012G20KT P6SM BKN008 FM280400 22008KT 2SM BR OVC008

4,000以上の空港の気象観測と天気予報(METAR報とTAF報)

利用可能な観測所は地図上に黄色い丸と赤い丸で示す。

丸の上にカーソルを重ねると観測所名を参照できる。

次にクリックすると気象観測と天気予報を参照できる。

マップの切り替え:黒色「×」印の緑ボタンをクリックして拡大、「-」印の緑ボタンをクリックして縮小、緑色の三角印をクリックして隣りの地図に切り替え


METAR-TAF: